sensor_id;sensor_type;location;lat;lon;timestamp;temperature;humidity
67050;DHT22;53955;52.442;13.284;2023-03-14T00:00:58;14.60;71.30
67050;DHT22;53955;52.442;13.284;2023-03-14T00:03:24;14.50;71.30
67050;DHT22;53955;52.442;13.284;2023-03-14T00:05:51;14.50;71.20
67050;DHT22;53955;52.442;13.284;2023-03-14T00:08:17;14.50;71.40
67050;DHT22;53955;52.442;13.284;2023-03-14T00:10:46;14.50;71.60
67050;DHT22;53955;52.442;13.284;2023-03-14T00:13:14;14.40;71.80
67050;DHT22;53955;52.442;13.284;2023-03-14T00:15:41;14.50;71.60
67050;DHT22;53955;52.442;13.284;2023-03-14T00:18:07;14.40;72.10
67050;DHT22;53955;52.442;13.284;2023-03-14T00:20:34;14.40;72.10
67050;DHT22;53955;52.442;13.284;2023-03-14T00:23:00;14.40;72.20
67050;DHT22;53955;52.442;13.284;2023-03-14T00:25:27;14.40;72.70
67050;DHT22;53955;52.442;13.284;2023-03-14T00:27:54;14.30;73.00
67050;DHT22;53955;52.442;13.284;2023-03-14T00:30:22;14.30;73.40
67050;DHT22;53955;52.442;13.284;2023-03-14T00:32:48;14.30;72.30
67050;DHT22;53955;52.442;13.284;2023-03-14T00:35:15;14.30;73.10
67050;DHT22;53955;52.442;13.284;2023-03-14T00:37:42;14.20;72.90
67050;DHT22;53955;52.442;13.284;2023-03-14T00:40:09;14.20;73.50
67050;DHT22;53955;52.442;13.284;2023-03-14T00:42:36;14.20;73.90
67050;DHT22;53955;52.442;13.284;2023-03-14T00:45:03;14.10;73.50
67050;DHT22;53955;52.442;13.284;2023-03-14T00:47:31;14.10;74.30
67050;DHT22;53955;52.442;13.284;2023-03-14T00:49:58;14.10;74.10
67050;DHT22;53955;52.442;13.284;2023-03-14T00:52:24;14.10;74.30
67050;DHT22;53955;52.442;13.284;2023-03-14T00:54:51;14.10;74.90
67050;DHT22;53955;52.442;13.284;2023-03-14T00:57:17;14.10;73.90
67050;DHT22;53955;52.442;13.284;2023-03-14T00:59:44;14.10;74.70
67050;DHT22;53955;52.442;13.284;2023-03-14T01:02:11;14.00;74.60
67050;DHT22;53955;52.442;13.284;2023-03-14T01:04:38;14.00;75.10
67050;DHT22;53955;52.442;13.284;2023-03-14T01:07:08;14.00;74.70
67050;DHT22;53955;52.442;13.284;2023-03-14T01:09:35;14.00;75.00
67050;DHT22;53955;52.442;13.284;2023-03-14T01:12:01;14.10;74.60
67050;DHT22;53955;52.442;13.284;2023-03-14T01:14:28;14.00;75.40
67050;DHT22;53955;52.442;13.284;2023-03-14T01:16:54;14.00;74.80
67050;DHT22;53955;52.442;13.284;2023-03-14T01:19:26;14.00;75.10
67050;DHT22;53955;52.442;13.284;2023-03-14T01:21:54;13.80;75.30
67050;DHT22;53955;52.442;13.284;2023-03-14T01:24:21;13.90;75.80
67050;DHT22;53955;52.442;13.284;2023-03-14T01:26:47;13.90;76.10
67050;DHT22;53955;52.442;13.284;2023-03-14T01:29:14;13.90;75.40
67050;DHT22;53955;52.442;13.284;2023-03-14T01:31:40;13.80;75.80
67050;DHT22;53955;52.442;13.284;2023-03-14T01:34:07;13.80;75.90
67050;DHT22;53955;52.442;13.284;2023-03-14T01:36:33;13.80;75.70
67050;DHT22;53955;52.442;13.284;2023-03-14T01:39:02;13.80;76.00
67050;DHT22;53955;52.442;13.284;2023-03-14T01:41:29;13.80;76.20
67050;DHT22;53955;52.442;13.284;2023-03-14T01:43:55;13.70;76.20
67050;DHT22;53955;52.442;13.284;2023-03-14T01:46:25;13.60;76.40
67050;DHT22;53955;52.442;13.284;2023-03-14T01:49:01;13.60;76.90
67050;DHT22;53955;52.442;13.284;2023-03-14T01:51:33;13.60;76.70
67050;DHT22;53955;52.442;13.284;2023-03-14T01:54:08;13.70;76.70
67050;DHT22;53955;52.442;13.284;2023-03-14T01:56:36;13.70;76.90
67050;DHT22;53955;52.442;13.284;2023-03-14T01:59:06;13.60;76.60
67050;DHT22;53955;52.442;13.284;2023-03-14T02:01:34;13.50;76.70
67050;DHT22;53955;52.442;13.284;2023-03-14T02:04:03;13.60;77.40
67050;DHT22;53955;52.442;13.284;2023-03-14T02:06:35;13.60;77.00
67050;DHT22;53955;52.442;13.284;2023-03-14T02:09:05;13.60;77.50
67050;DHT22;53955;52.442;13.284;2023-03-14T02:11:32;13.50;76.70
67050;DHT22;53955;52.442;13.284;2023-03-14T02:13:59;13.60;77.30
67050;DHT22;53955;52.442;13.284;2023-03-14T02:16:27;13.60;77.60
67050;DHT22;53955;52.442;13.284;2023-03-14T02:18:54;13.50;76.90
67050;DHT22;53955;52.442;13.284;2023-03-14T02:21:23;13.50;77.20
67050;DHT22;53955;52.442;13.284;2023-03-14T02:23:59;13.60;77.30
67050;DHT22;53955;52.442;13.284;2023-03-14T02:26:36;13.50;77.00
67050;DHT22;53955;52.442;13.284;2023-03-14T02:29:06;13.50;76.70
67050;DHT22;53955;52.442;13.284;2023-03-14T02:31:33;13.50;76.90
67050;DHT22;53955;52.442;13.284;2023-03-14T02:33:59;13.50;77.00
67050;DHT22;53955;52.442;13.284;2023-03-14T02:36:27;13.50;76.40
67050;DHT22;53955;52.442;13.284;2023-03-14T02:39:00;13.50;76.40
67050;DHT22;53955;52.442;13.284;2023-03-14T02:41:29;13.50;76.80
67050;DHT22;53955;52.442;13.284;2023-03-14T02:43:56;13.60;76.50
67050;DHT22;53955;52.442;13.284;2023-03-14T02:46:24;13.50;76.70
67050;DHT22;53955;52.442;13.284;2023-03-14T02:48:54;13.60;76.30
67050;DHT22;53955;52.442;13.284;2023-03-14T02:51:23;13.50;76.40
67050;DHT22;53955;52.442;13.284;2023-03-14T02:53:51;13.50;76.50
67050;DHT22;53955;52.442;13.284;2023-03-14T02:56:18;13.60;76.60
67050;DHT22;53955;52.442;13.284;2023-03-14T02:58:44;13.50;76.40
67050;DHT22;53955;52.442;13.284;2023-03-14T03:01:11;13.60;76.10
67050;DHT22;53955;52.442;13.284;2023-03-14T03:03:39;13.60;76.30
67050;DHT22;53955;52.442;13.284;2023-03-14T03:06:06;13.50;76.00
67050;DHT22;53955;52.442;13.284;2023-03-14T03:08:33;13.50;76.40
67050;DHT22;53955;52.442;13.284;2023-03-14T03:10:59;13.50;76.80
67050;DHT22;53955;52.442;13.284;2023-03-14T03:13:26;13.60;76.60
67050;DHT22;53955;52.442;13.284;2023-03-14T03:15:53;13.60;76.50
67050;DHT22;53955;52.442;13.284;2023-03-14T03:18:20;13.60;76.40
67050;DHT22;53955;52.442;13.284;2023-03-14T03:20:48;13.40;76.20
67050;DHT22;53955;52.442;13.284;2023-03-14T03:23:14;13.50;75.80
67050;DHT22;53955;52.442;13.284;2023-03-14T03:25:41;13.50;76.10
67050;DHT22;53955;52.442;13.284;2023-03-14T03:28:08;13.50;76.10
67050;DHT22;53955;52.442;13.284;2023-03-14T03:30:37;13.50;75.70
67050;DHT22;53955;52.442;13.284;2023-03-14T03:33:04;13.50;75.70
67050;DHT22;53955;52.442;13.284;2023-03-14T03:35:31;13.40;75.70
67050;DHT22;53955;52.442;13.284;2023-03-14T03:37:59;13.40;75.50
67050;DHT22;53955;52.442;13.284;2023-03-14T03:40:25;13.50;75.70
67050;DHT22;53955;52.442;13.284;2023-03-14T03:42:52;13.50;75.30
67050;DHT22;53955;52.442;13.284;2023-03-14T03:45:18;13.50;75.50
67050;DHT22;53955;52.442;13.284;2023-03-14T03:47:45;13.50;75.40
67050;DHT22;53955;52.442;13.284;2023-03-14T03:50:11;13.60;75.10
67050;DHT22;53955;52.442;13.284;2023-03-14T03:52:38;13.50;74.70
67050;DHT22;53955;52.442;13.284;2023-03-14T03:55:07;13.60;75.00
67050;DHT22;53955;52.442;13.284;2023-03-14T03:57:33;13.50;74.80
67050;DHT22;53955;52.442;13.284;2023-03-14T04:00:00;13.40;74.40
67050;DHT22;53955;52.442;13.284;2023-03-14T04:02:26;13.50;74.60
67050;DHT22;53955;52.442;13.284;2023-03-14T04:04:53;13.50;73.80
67050;DHT22;53955;52.442;13.284;2023-03-14T04:07:19;13.60;74.40
67050;DHT22;53955;52.442;13.284;2023-03-14T04:09:46;13.50;74.50
67050;DHT22;53955;52.442;13.284;2023-03-14T04:12:14;13.50;74.00
67050;DHT22;53955;52.442;13.284;2023-03-14T04:14:40;13.50;74.50
67050;DHT22;53955;52.442;13.284;2023-03-14T04:17:07;13.50;73.90
67050;DHT22;53955;52.442;13.284;2023-03-14T04:19:34;13.50;74.10
67050;DHT22;53955;52.442;13.284;2023-03-14T04:22:01;13.50;74.50
67050;DHT22;53955;52.442;13.284;2023-03-14T04:24:28;13.40;73.70
67050;DHT22;53955;52.442;13.284;2023-03-14T04:26:55;13.40;74.00
67050;DHT22;53955;52.442;13.284;2023-03-14T04:29:23;13.50;74.00
67050;DHT22;53955;52.442;13.284;2023-03-14T04:31:49;13.40;73.90
67050;DHT22;53955;52.442;13.284;2023-03-14T04:34:16;13.50;73.70
67050;DHT22;53955;52.442;13.284;2023-03-14T04:36:42;13.40;73.40
67050;DHT22;53955;52.442;13.284;2023-03-14T04:39:09;13.50;73.30
67050;DHT22;53955;52.442;13.284;2023-03-14T04:41:35;13.50;73.00
67050;DHT22;53955;52.442;13.284;2023-03-14T04:44:02;13.50;72.90
67050;DHT22;53955;52.442;13.284;2023-03-14T04:46:30;13.40;73.30
67050;DHT22;53955;52.442;13.284;2023-03-14T04:48:56;13.50;73.00
67050;DHT22;53955;52.442;13.284;2023-03-14T04:51:23;13.50;72.90
67050;DHT22;53955;52.442;13.284;2023-03-14T04:53:52;13.40;73.00
67050;DHT22;53955;52.442;13.284;2023-03-14T04:56:19;13.30;72.70
67050;DHT22;53955;52.442;13.284;2023-03-14T04:58:46;13.40;73.00
67050;DHT22;53955;52.442;13.284;2023-03-14T05:01:12;13.30;73.30
67050;DHT22;53955;52.442;13.284;2023-03-14T05:03:40;13.50;73.10
67050;DHT22;53955;52.442;13.284;2023-03-14T05:06:07;13.40;72.70
67050;DHT22;53955;52.442;13.284;2023-03-14T05:08:34;13.50;72.60
67050;DHT22;53955;52.442;13.284;2023-03-14T05:11:00;13.40;72.60
67050;DHT22;53955;52.442;13.284;2023-03-14T05:13:28;13.50;72.70
67050;DHT22;53955;52.442;13.284;2023-03-14T05:16:03;13.50;72.50
67050;DHT22;53955;52.442;13.284;2023-03-14T05:18:29;13.40;72.40
67050;DHT22;53955;52.442;13.284;2023-03-14T05:20:57;13.40;73.10
67050;DHT22;53955;52.442;13.284;2023-03-14T05:23:24;13.40;73.50
67050;DHT22;53955;52.442;13.284;2023-03-14T05:25:50;13.50;72.50
67050;DHT22;53955;52.442;13.284;2023-03-14T05:28:17;13.60;73.90
67050;DHT22;53955;52.442;13.284;2023-03-14T05:30:44;13.70;72.00
67050;DHT22;53955;52.442;13.284;2023-03-14T05:33:10;13.60;72.00
67050;DHT22;53955;52.442;13.284;2023-03-14T05:35:37;13.60;71.70
67050;DHT22;53955;52.442;13.284;2023-03-14T05:38:05;13.60;71.20
67050;DHT22;53955;52.442;13.284;2023-03-14T05:40:31;13.50;70.50
67050;DHT22;53955;52.442;13.284;2023-03-14T05:42:58;13.50;71.70
67050;DHT22;53955;52.442;13.284;2023-03-14T05:45:25;13.60;71.50
67050;DHT22;53955;52.442;13.284;2023-03-14T05:47:51;13.70;70.70
67050;DHT22;53955;52.442;13.284;2023-03-14T05:50:18;13.60;70.00
67050;DHT22;53955;52.442;13.284;2023-03-14T05:52:44;13.60;69.80
67050;DHT22;53955;52.442;13.284;2023-03-14T05:55:12;13.50;69.90
67050;DHT22;53955;52.442;13.284;2023-03-14T05:57:39;13.60;69.40
67050;DHT22;53955;52.442;13.284;2023-03-14T06:00:07;13.50;68.50
67050;DHT22;53955;52.442;13.284;2023-03-14T06:02:34;13.50;68.70
67050;DHT22;53955;52.442;13.284;2023-03-14T06:05:00;13.60;68.70
67050;DHT22;53955;52.442;13.284;2023-03-14T06:07:27;13.50;68.60
67050;DHT22;53955;52.442;13.284;2023-03-14T06:09:53;13.50;68.60
67050;DHT22;53955;52.442;13.284;2023-03-14T06:12:21;13.60;68.80
67050;DHT22;53955;52.442;13.284;2023-03-14T06:14:48;13.60;68.20
67050;DHT22;53955;52.442;13.284;2023-03-14T06:17:14;13.50;67.70
67050;DHT22;53955;52.442;13.284;2023-03-14T06:19:41;13.60;66.80
67050;DHT22;53955;52.442;13.284;2023-03-14T06:22:07;13.60;67.30
67050;DHT22;53955;52.442;13.284;2023-03-14T06:24:34;13.80;66.70
67050;DHT22;53955;52.442;13.284;2023-03-14T06:27:01;13.70;66.10
67050;DHT22;53955;52.442;13.284;2023-03-14T06:29:29;13.60;66.20
67050;DHT22;53955;52.442;13.284;2023-03-14T06:31:56;13.70;66.10
67050;DHT22;53955;52.442;13.284;2023-03-14T06:34:23;13.70;66.00
67050;DHT22;53955;52.442;13.284;2023-03-14T06:36:49;13.80;65.70
67050;DHT22;53955;52.442;13.284;2023-03-14T06:39:16;13.80;64.80
67050;DHT22;53955;52.442;13.284;2023-03-14T06:41:43;13.80;65.50
67050;DHT22;53955;52.442;13.284;2023-03-14T06:44:09;13.80;64.80
67050;DHT22;53955;52.442;13.284;2023-03-14T06:46:37;13.90;64.50
67050;DHT22;53955;52.442;13.284;2023-03-14T06:49:04;14.00;64.90
67050;DHT22;53955;52.442;13.284;2023-03-14T06:51:30;14.10;63.90
67050;DHT22;53955;52.442;13.284;2023-03-14T06:53:57;14.30;63.20
67050;DHT22;53955;52.442;13.284;2023-03-14T06:56:23;14.30;63.30
67050;DHT22;53955;52.442;13.284;2023-03-14T06:58:50;15.00;61.50
67050;DHT22;53955;52.442;13.284;2023-03-14T07:01:21;15.40;59.80
67050;DHT22;53955;52.442;13.284;2023-03-14T07:03:50;15.30;59.70
67050;DHT22;53955;52.442;13.284;2023-03-14T07:06:16;15.50;58.40
67050;DHT22;53955;52.442;13.284;2023-03-14T07:08:43;15.70;57.70
67050;DHT22;53955;52.442;13.284;2023-03-14T07:11:10;16.10;55.80
67050;DHT22;53955;52.442;13.284;2023-03-14T07:13:37;16.00;55.20
67050;DHT22;53955;52.442;13.284;2023-03-14T07:16:05;16.00;55.80
67050;DHT22;53955;52.442;13.284;2023-03-14T07:18:31;15.90;55.50
67050;DHT22;53955;52.442;13.284;2023-03-14T07:20:59;15.90;56.00
67050;DHT22;53955;52.442;13.284;2023-03-14T07:23:26;15.70;56.50
67050;DHT22;53955;52.442;13.284;2023-03-14T07:25:53;15.70;56.70
67050;DHT22;53955;52.442;13.284;2023-03-14T07:28:20;16.60;54.20
67050;DHT22;53955;52.442;13.284;2023-03-14T07:30:48;18.20;50.20
67050;DHT22;53955;52.442;13.284;2023-03-14T07:33:15;19.60;46.10
67050;DHT22;53955;52.442;13.284;2023-03-14T07:35:41;20.50;43.30
67050;DHT22;53955;52.442;13.284;2023-03-14T07:38:09;20.90;41.50
67050;DHT22;53955;52.442;13.284;2023-03-14T07:40:36;20.40;42.70
67050;DHT22;53955;52.442;13.284;2023-03-14T07:43:02;20.20;42.60
67050;DHT22;53955;52.442;13.284;2023-03-14T07:45:29;20.10;42.90
67050;DHT22;53955;52.442;13.284;2023-03-14T07:47:55;19.70;43.30
67050;DHT22;53955;52.442;13.284;2023-03-14T07:50:22;19.10;44.70
67050;DHT22;53955;52.442;13.284;2023-03-14T07:52:49;18.40;45.80
67050;DHT22;53955;52.442;13.284;2023-03-14T07:55:17;17.50;49.00
67050;DHT22;53955;52.442;13.284;2023-03-14T07:57:44;16.80;51.00
67050;DHT22;53955;52.442;13.284;2023-03-14T08:00:11;16.50;52.30
67050;DHT22;53955;52.442;13.284;2023-03-14T08:02:39;16.30;53.50
67050;DHT22;53955;52.442;13.284;2023-03-14T08:05:06;16.00;54.30
67050;DHT22;53955;52.442;13.284;2023-03-14T08:07:33;15.80;55.00
67050;DHT22;53955;52.442;13.284;2023-03-14T08:09:59;15.60;55.30
67050;DHT22;53955;52.442;13.284;2023-03-14T08:12:27;15.60;56.00
67050;DHT22;53955;52.442;13.284;2023-03-14T08:14:54;15.50;56.00
67050;DHT22;53955;52.442;13.284;2023-03-14T08:17:20;15.40;56.60
67050;DHT22;53955;52.442;13.284;2023-03-14T08:19:47;15.50;56.10
67050;DHT22;53955;52.442;13.284;2023-03-14T08:22:14;15.40;56.90
67050;DHT22;53955;52.442;13.284;2023-03-14T08:24:40;15.20;58.10
67050;DHT22;53955;52.442;13.284;2023-03-14T08:27:07;15.10;58.80
67050;DHT22;53955;52.442;13.284;2023-03-14T08:29:35;15.00;59.10
67050;DHT22;53955;52.442;13.284;2023-03-14T08:32:02;14.90;59.50
67050;DHT22;53955;52.442;13.284;2023-03-14T08:34:28;14.90;59.30
67050;DHT22;53955;52.442;13.284;2023-03-14T08:36:55;14.90;59.50
67050;DHT22;53955;52.442;13.284;2023-03-14T08:39:22;14.70;60.20
67050;DHT22;53955;52.442;13.284;2023-03-14T08:41:49;14.80;59.90
67050;DHT22;53955;52.442;13.284;2023-03-14T08:44:16;14.80;60.40
67050;DHT22;53955;52.442;13.284;2023-03-14T08:46:44;14.80;59.80
67050;DHT22;53955;52.442;13.284;2023-03-14T08:49:10;14.80;59.20
67050;DHT22;53955;52.442;13.284;2023-03-14T08:51:37;14.80;59.60
67050;DHT22;53955;52.442;13.284;2023-03-14T08:54:03;14.80;59.60
67050;DHT22;53955;52.442;13.284;2023-03-14T08:56:30;14.70;59.50
67050;DHT22;53955;52.442;13.284;2023-03-14T08:58:56;14.70;59.50
67050;DHT22;53955;52.442;13.284;2023-03-14T09:01:23;14.80;59.50
67050;DHT22;53955;52.442;13.284;2023-03-14T09:03:52;14.80;59.40
67050;DHT22;53955;52.442;13.284;2023-03-14T09:06:19;14.90;59.80
67050;DHT22;53955;52.442;13.284;2023-03-14T09:08:46;14.90;59.30
67050;DHT22;53955;52.442;13.284;2023-03-14T09:11:13;15.00;58.80
67050;DHT22;53955;52.442;13.284;2023-03-14T09:13:40;15.30;58.40
67050;DHT22;53955;52.442;13.284;2023-03-14T09:16:07;16.40;54.80
67050;DHT22;53955;52.442;13.284;2023-03-14T09:18:35;17.90;50.80
67050;DHT22;53955;52.442;13.284;2023-03-14T09:21:03;18.10;48.70
67050;DHT22;53955;52.442;13.284;2023-03-14T09:23:30;18.30;46.90
67050;DHT22;53955;52.442;13.284;2023-03-14T09:25:57;18.50;45.80
67050;DHT22;53955;52.442;13.284;2023-03-14T09:28:24;18.50;46.50
67050;DHT22;53955;52.442;13.284;2023-03-14T09:30:52;18.60;46.30
67050;DHT22;53955;52.442;13.284;2023-03-14T09:33:19;18.40;46.10
67050;DHT22;53955;52.442;13.284;2023-03-14T09:35:46;18.40;45.30
67050;DHT22;53955;52.442;13.284;2023-03-14T09:38:14;18.20;45.90
67050;DHT22;53955;52.442;13.284;2023-03-14T09:40:41;17.80;48.40
67050;DHT22;53955;52.442;13.284;2023-03-14T09:43:10;17.40;48.00
67050;DHT22;53955;52.442;13.284;2023-03-14T09:45:39;16.90;48.90
67050;DHT22;53955;52.442;13.284;2023-03-14T09:48:14;16.50;50.30
67050;DHT22;53955;52.442;13.284;2023-03-14T09:50:43;16.40;50.90
67050;DHT22;53955;52.442;13.284;2023-03-14T09:53:16;16.20;51.30
67050;DHT22;53955;52.442;13.284;2023-03-14T09:55:45;16.00;51.30
67050;DHT22;53955;52.442;13.284;2023-03-14T09:58:14;16.00;51.40
67050;DHT22;53955;52.442;13.284;2023-03-14T10:00:41;15.90;51.80
67050;DHT22;53955;52.442;13.284;2023-03-14T10:03:23;15.90;52.50
67050;DHT22;53955;52.442;13.284;2023-03-14T10:05:50;15.80;52.00
67050;DHT22;53955;52.442;13.284;2023-03-14T10:08:18;15.90;51.40
67050;DHT22;53955;52.442;13.284;2023-03-14T10:10:45;15.80;51.50
67050;DHT22;53955;52.442;13.284;2023-03-14T10:13:16;15.70;51.50
67050;DHT22;53955;52.442;13.284;2023-03-14T10:15:47;15.70;51.30
67050;DHT22;53955;52.442;13.284;2023-03-14T10:18:15;15.70;51.90
67050;DHT22;53955;52.442;13.284;2023-03-14T10:20:42;15.70;51.90
67050;DHT22;53955;52.442;13.284;2023-03-14T10:23:23;15.60;52.10
67050;DHT22;53955;52.442;13.284;2023-03-14T10:26:00;15.60;51.70
67050;DHT22;53955;52.442;13.284;2023-03-14T10:28:30;15.70;52.20
67050;DHT22;53955;52.442;13.284;2023-03-14T10:30:59;15.50;51.50
67050;DHT22;53955;52.442;13.284;2023-03-14T10:33:27;15.50;51.20
67050;DHT22;53955;52.442;13.284;2023-03-14T10:35:55;15.50;50.50
67050;DHT22;53955;52.442;13.284;2023-03-14T10:38:25;15.40;52.00
67050;DHT22;53955;52.442;13.284;2023-03-14T10:40:53;15.40;51.10
67050;DHT22;53955;52.442;13.284;2023-03-14T10:43:23;15.50;51.40
67050;DHT22;53955;52.442;13.284;2023-03-14T10:45:54;15.40;52.20
67050;DHT22;53955;52.442;13.284;2023-03-14T10:48:25;15.40;51.80
67050;DHT22;53955;52.442;13.284;2023-03-14T10:50:56;15.40;52.10
67050;DHT22;53955;52.442;13.284;2023-03-14T10:53:26;15.50;50.70
67050;DHT22;53955;52.442;13.284;2023-03-14T10:55:55;15.40;52.30
67050;DHT22;53955;52.442;13.284;2023-03-14T10:58:24;15.50;51.00
67050;DHT22;53955;52.442;13.284;2023-03-14T11:01:02;15.60;51.00
67050;DHT22;53955;52.442;13.284;2023-03-14T11:03:35;15.60;50.90
67050;DHT22;53955;52.442;13.284;2023-03-14T11:06:06;15.70;50.70
67050;DHT22;53955;52.442;13.284;2023-03-14T11:08:44;15.70;51.00
67050;DHT22;53955;52.442;13.284;2023-03-14T11:11:16;15.60;51.40
67050;DHT22;53955;52.442;13.284;2023-03-14T11:13:51;15.70;51.30
67050;DHT22;53955;52.442;13.284;2023-03-14T11:16:24;15.80;51.30
67050;DHT22;53955;52.442;13.284;2023-03-14T11:19:14;15.60;51.60
67050;DHT22;53955;52.442;13.284;2023-03-14T11:21:48;15.60;51.60
67050;DHT22;53955;52.442;13.284;2023-03-14T11:24:31;15.60;52.50
67050;DHT22;53955;52.442;13.284;2023-03-14T11:27:03;15.60;51.40
67050;DHT22;53955;52.442;13.284;2023-03-14T11:29:39;15.70;52.10
67050;DHT22;53955;52.442;13.284;2023-03-14T11:32:13;15.70;52.70
67050;DHT22;53955;52.442;13.284;2023-03-14T11:34:44;15.80;52.00
67050;DHT22;53955;52.442;13.284;2023-03-14T11:37:16;15.80;52.60
67050;DHT22;53955;52.442;13.284;2023-03-14T11:39:45;15.70;52.80
67050;DHT22;53955;52.442;13.284;2023-03-14T11:42:15;15.60;53.00
67050;DHT22;53955;52.442;13.284;2023-03-14T11:44:42;15.50;54.10
67050;DHT22;53955;52.442;13.284;2023-03-14T11:47:10;15.50;54.00
67050;DHT22;53955;52.442;13.284;2023-03-14T11:49:42;15.50;53.80
67050;DHT22;53955;52.442;13.284;2023-03-14T11:52:14;15.60;53.90
67050;DHT22;53955;52.442;13.284;2023-03-14T11:54:46;15.60;54.40
67050;DHT22;53955;52.442;13.284;2023-03-14T11:57:16;15.60;55.00
67050;DHT22;53955;52.442;13.284;2023-03-14T11:59:50;15.70;55.30
67050;DHT22;53955;52.442;13.284;2023-03-14T12:02:22;15.60;55.70
67050;DHT22;53955;52.442;13.284;2023-03-14T12:05:14;15.70;55.20
67050;DHT22;53955;52.442;13.284;2023-03-14T12:08:01;15.70;55.90
67050;DHT22;53955;52.442;13.284;2023-03-14T12:10:36;15.70;55.50
67050;DHT22;53955;52.442;13.284;2023-03-14T12:13:03;15.70;55.40
67050;DHT22;53955;52.442;13.284;2023-03-14T12:15:30;15.80;55.00
67050;DHT22;53955;52.442;13.284;2023-03-14T12:17:57;15.80;54.50
67050;DHT22;53955;52.442;13.284;2023-03-14T12:20:24;15.80;53.90
67050;DHT22;53955;52.442;13.284;2023-03-14T12:22:52;15.80;54.00
67050;DHT22;53955;52.442;13.284;2023-03-14T12:25:21;15.80;53.80
67050;DHT22;53955;52.442;13.284;2023-03-14T12:28:20;15.80;54.30
67050;DHT22;53955;52.442;13.284;2023-03-14T12:30:47;15.90;54.80
67050;DHT22;53955;52.442;13.284;2023-03-14T12:33:26;15.80;55.40
67050;DHT22;53955;52.442;13.284;2023-03-14T12:35:58;16.00;57.70
67050;DHT22;53955;52.442;13.284;2023-03-14T12:38:32;15.90;58.70
67050;DHT22;53955;52.442;13.284;2023-03-14T12:41:06;15.90;58.90
67050;DHT22;53955;52.442;13.284;2023-03-14T12:43:39;16.00;57.50
67050;DHT22;53955;52.442;13.284;2023-03-14T12:46:08;15.90;55.90
67050;DHT22;53955;52.442;13.284;2023-03-14T12:48:38;15.90;55.00
67050;DHT22;53955;52.442;13.284;2023-03-14T12:51:12;15.90;55.20
67050;DHT22;53955;52.442;13.284;2023-03-14T12:54:06;15.80;56.10
67050;DHT22;53955;52.442;13.284;2023-03-14T12:56:44;15.90;56.70
67050;DHT22;53955;52.442;13.284;2023-03-14T12:59:30;15.80;58.00
67050;DHT22;53955;52.442;13.284;2023-03-14T13:02:00;15.70;60.20
67050;DHT22;53955;52.442;13.284;2023-03-14T13:04:29;15.60;61.10
67050;DHT22;53955;52.442;13.284;2023-03-14T13:06:59;15.70;62.80
67050;DHT22;53955;52.442;13.284;2023-03-14T13:09:52;15.50;64.60
67050;DHT22;53955;52.442;13.284;2023-03-14T13:12:25;15.50;65.90
67050;DHT22;53955;52.442;13.284;2023-03-14T13:14:59;15.40;66.00
67050;DHT22;53955;52.442;13.284;2023-03-14T13:17:30;15.50;66.90
67050;DHT22;53955;52.442;13.284;2023-03-14T13:20:00;15.50;67.80
67050;DHT22;53955;52.442;13.284;2023-03-14T13:22:31;15.40;68.90
67050;DHT22;53955;52.442;13.284;2023-03-14T13:25:00;15.50;68.90
67050;DHT22;53955;52.442;13.284;2023-03-14T13:27:30;15.60;69.30
67050;DHT22;53955;52.442;13.284;2023-03-14T13:30:05;15.90;68.20
67050;DHT22;53955;52.442;13.284;2023-03-14T13:32:32;16.20;66.50
67050;DHT22;53955;52.442;13.284;2023-03-14T13:34:58;16.50;62.20
67050;DHT22;53955;52.442;13.284;2023-03-14T13:37:26;16.40;59.30
67050;DHT22;53955;52.442;13.284;2023-03-14T13:39:54;16.50;58.60
67050;DHT22;53955;52.442;13.284;2023-03-14T13:42:24;16.40;55.50
67050;DHT22;53955;52.442;13.284;2023-03-14T13:44:53;16.30;56.40
67050;DHT22;53955;52.442;13.284;2023-03-14T13:47:23;16.10;56.40
67050;DHT22;53955;52.442;13.284;2023-03-14T13:49:51;16.10;56.70
67050;DHT22;53955;52.442;13.284;2023-03-14T13:52:23;16.30;56.40
67050;DHT22;53955;52.442;13.284;2023-03-14T13:54:53;16.30;57.00
67050;DHT22;53955;52.442;13.284;2023-03-14T13:57:19;16.20;56.20
67050;DHT22;53955;52.442;13.284;2023-03-14T13:59:58;16.30;57.70
67050;DHT22;53955;52.442;13.284;2023-03-14T14:02:27;16.40;56.20
67050;DHT22;53955;52.442;13.284;2023-03-14T14:04:54;16.50;56.50
67050;DHT22;53955;52.442;13.284;2023-03-14T14:07:20;16.60;56.10
67050;DHT22;53955;52.442;13.284;2023-03-14T14:09:49;16.60;55.10
67050;DHT22;53955;52.442;13.284;2023-03-14T14:12:18;16.60;55.40
67050;DHT22;53955;52.442;13.284;2023-03-14T14:14:52;16.60;56.00
67050;DHT22;53955;52.442;13.284;2023-03-14T14:17:22;16.40;56.00
67050;DHT22;53955;52.442;13.284;2023-03-14T14:19:52;16.50;56.40
67050;DHT22;53955;52.442;13.284;2023-03-14T14:22:21;16.20;56.90
67050;DHT22;53955;52.442;13.284;2023-03-14T14:24:48;16.10;57.10
67050;DHT22;53955;52.442;13.284;2023-03-14T14:27:19;15.90;57.90
67050;DHT22;53955;52.442;13.284;2023-03-14T14:29:57;15.90;57.90
67050;DHT22;53955;52.442;13.284;2023-03-14T14:32:24;15.80;56.50
67050;DHT22;53955;52.442;13.284;2023-03-14T14:34:58;16.00;56.90
67050;DHT22;53955;52.442;13.284;2023-03-14T14:37:27;16.10;56.30
67050;DHT22;53955;52.442;13.284;2023-03-14T14:39:56;16.20;55.60
67050;DHT22;53955;52.442;13.284;2023-03-14T14:42:26;16.20;55.80
67050;DHT22;53955;52.442;13.284;2023-03-14T14:44:53;16.10;55.30
67050;DHT22;53955;52.442;13.284;2023-03-14T14:47:22;16.10;56.10
67050;DHT22;53955;52.442;13.284;2023-03-14T14:49:50;16.00;56.30
67050;DHT22;53955;52.442;13.284;2023-03-14T14:52:20;16.00;55.40
67050;DHT22;53955;52.442;13.284;2023-03-14T14:54:48;16.00;56.80
67050;DHT22;53955;52.442;13.284;2023-03-14T14:57:21;16.00;56.20
67050;DHT22;53955;52.442;13.284;2023-03-14T14:59:49;15.90;56.50
67050;DHT22;53955;52.442;13.284;2023-03-14T15:02:31;15.70;57.00
67050;DHT22;53955;52.442;13.284;2023-03-14T15:04:59;15.80;57.80
67050;DHT22;53955;52.442;13.284;2023-03-14T15:07:27;15.80;57.00
67050;DHT22;53955;52.442;13.284;2023-03-14T15:09:53;15.70;57.50
67050;DHT22;53955;52.442;13.284;2023-03-14T15:12:20;15.60;61.30
67050;DHT22;53955;52.442;13.284;2023-03-14T15:14:49;15.40;66.50
67050;DHT22;53955;52.442;13.284;2023-03-14T15:17:16;15.20;62.40
67050;DHT22;53955;52.442;13.284;2023-03-14T15:19:42;14.50;60.60
67050;DHT22;53955;52.442;13.284;2023-03-14T15:22:12;13.60;63.40
67050;DHT22;53955;52.442;13.284;2023-03-14T15:24:41;12.70;67.10